sensor_id;sensor_type;location;lat;lon;timestamp;P1;durP1;ratioP1;P2;durP2;ratioP2
61911;SDS011;49973;52.084;5.412;2023-03-14T00:02:20;11.23;;;3.27;;
61911;SDS011;49973;52.084;5.412;2023-03-14T00:04:48;7.60;;;3.10;;
61911;SDS011;49973;52.084;5.412;2023-03-14T00:07:17;8.47;;;2.90;;
61911;SDS011;49973;52.084;5.412;2023-03-14T00:09:45;17.60;;;3.30;;
61911;SDS011;49973;52.084;5.412;2023-03-14T00:12:14;10.57;;;3.50;;
61911;SDS011;49973;52.084;5.412;2023-03-14T00:14:42;6.23;;;2.70;;
61911;SDS011;49973;52.084;5.412;2023-03-14T00:17:11;18.33;;;2.90;;
61911;SDS011;49973;52.084;5.412;2023-03-14T00:19:41;12.97;;;2.77;;
61911;SDS011;49973;52.084;5.412;2023-03-14T00:22:10;12.33;;;2.67;;
61911;SDS011;49973;52.084;5.412;2023-03-14T00:24:38;12.43;;;2.90;;
61911;SDS011;49973;52.084;5.412;2023-03-14T00:27:07;10.40;;;1.77;;
61911;SDS011;49973;52.084;5.412;2023-03-14T00:29:35;11.80;;;2.63;;
61911;SDS011;49973;52.084;5.412;2023-03-14T00:32:04;7.77;;;2.40;;
61911;SDS011;49973;52.084;5.412;2023-03-14T00:34:32;9.03;;;2.40;;
61911;SDS011;49973;52.084;5.412;2023-03-14T00:37:02;16.27;;;3.33;;
61911;SDS011;49973;52.084;5.412;2023-03-14T00:39:31;4.27;;;1.53;;
61911;SDS011;49973;52.084;5.412;2023-03-14T00:41:59;7.70;;;2.20;;
61911;SDS011;49973;52.084;5.412;2023-03-14T00:44:28;12.37;;;2.33;;
61911;SDS011;49973;52.084;5.412;2023-03-14T00:46:56;7.83;;;2.43;;
61911;SDS011;49973;52.084;5.412;2023-03-14T00:49:25;10.90;;;2.30;;
61911;SDS011;49973;52.084;5.412;2023-03-14T00:51:54;7.53;;;2.00;;
61911;SDS011;49973;52.084;5.412;2023-03-14T00:54:24;9.60;;;2.40;;
61911;SDS011;49973;52.084;5.412;2023-03-14T00:56:52;8.57;;;1.60;;
61911;SDS011;49973;52.084;5.412;2023-03-14T00:59:21;9.97;;;2.17;;
61911;SDS011;49973;52.084;5.412;2023-03-14T01:01:50;5.33;;;1.70;;
61911;SDS011;49973;52.084;5.412;2023-03-14T01:04:19;3.57;;;1.17;;
61911;SDS011;49973;52.084;5.412;2023-03-14T01:06:47;4.97;;;2.10;;
61911;SDS011;49973;52.084;5.412;2023-03-14T01:09:16;4.03;;;1.20;;
61911;SDS011;49973;52.084;5.412;2023-03-14T01:11:46;10.27;;;2.00;;
61911;SDS011;49973;52.084;5.412;2023-03-14T01:14:16;6.50;;;1.67;;
61911;SDS011;49973;52.084;5.412;2023-03-14T01:16:45;11.13;;;2.57;;
61911;SDS011;49973;52.084;5.412;2023-03-14T01:19:13;5.03;;;1.23;;
61911;SDS011;49973;52.084;5.412;2023-03-14T01:21:42;14.50;;;1.93;;
61911;SDS011;49973;52.084;5.412;2023-03-14T01:24:10;6.97;;;1.53;;
61911;SDS011;49973;52.084;5.412;2023-03-14T01:26:39;15.50;;;2.20;;
61911;SDS011;49973;52.084;5.412;2023-03-14T01:29:10;12.10;;;1.67;;
61911;SDS011;49973;52.084;5.412;2023-03-14T01:31:40;3.40;;;1.30;;
61911;SDS011;49973;52.084;5.412;2023-03-14T01:34:08;3.40;;;1.60;;
61911;SDS011;49973;52.084;5.412;2023-03-14T01:36:37;8.57;;;1.40;;
61911;SDS011;49973;52.084;5.412;2023-03-14T01:39:05;9.73;;;1.77;;
61911;SDS011;49973;52.084;5.412;2023-03-14T01:41:35;6.10;;;1.43;;
61911;SDS011;49973;52.084;5.412;2023-03-14T01:44:04;5.30;;;1.50;;
61911;SDS011;49973;52.084;5.412;2023-03-14T01:46:35;10.47;;;2.23;;
61911;SDS011;49973;52.084;5.412;2023-03-14T01:49:07;8.47;;;1.93;;
61911;SDS011;49973;52.084;5.412;2023-03-14T01:51:44;4.23;;;1.20;;
61911;SDS011;49973;52.084;5.412;2023-03-14T01:54:17;9.83;;;2.43;;
61911;SDS011;49973;52.084;5.412;2023-03-14T01:56:50;6.00;;;1.70;;
61911;SDS011;49973;52.084;5.412;2023-03-14T01:59:22;8.07;;;1.77;;
61911;SDS011;49973;52.084;5.412;2023-03-14T02:01:53;5.13;;;1.40;;
61911;SDS011;49973;52.084;5.412;2023-03-14T02:04:23;6.57;;;1.50;;
61911;SDS011;49973;52.084;5.412;2023-03-14T02:06:58;5.80;;;1.50;;
61911;SDS011;49973;52.084;5.412;2023-03-14T02:09:36;6.07;;;1.50;;
61911;SDS011;49973;52.084;5.412;2023-03-14T02:12:08;6.10;;;1.37;;
61911;SDS011;49973;52.084;5.412;2023-03-14T02:14:50;6.47;;;1.63;;
61911;SDS011;49973;52.084;5.412;2023-03-14T02:17:24;4.50;;;1.53;;
61911;SDS011;49973;52.084;5.412;2023-03-14T02:20:15;3.37;;;1.20;;
61911;SDS011;49973;52.084;5.412;2023-03-14T02:22:56;7.40;;;1.47;;
61911;SDS011;49973;52.084;5.412;2023-03-14T02:25:29;14.20;;;2.00;;
61911;SDS011;49973;52.084;5.412;2023-03-14T02:28:08;3.17;;;1.30;;
61911;SDS011;49973;52.084;5.412;2023-03-14T02:30:38;11.00;;;1.70;;
61911;SDS011;49973;52.084;5.412;2023-03-14T02:33:08;8.47;;;1.93;;
61911;SDS011;49973;52.084;5.412;2023-03-14T02:35:39;10.40;;;2.37;;
61911;SDS011;49973;52.084;5.412;2023-03-14T02:38:10;12.00;;;1.57;;
61911;SDS011;49973;52.084;5.412;2023-03-14T02:40:47;7.60;;;2.00;;
61911;SDS011;49973;52.084;5.412;2023-03-14T02:43:19;7.77;;;1.90;;
61911;SDS011;49973;52.084;5.412;2023-03-14T02:45:54;6.73;;;2.00;;
61911;SDS011;49973;52.084;5.412;2023-03-14T02:48:25;7.47;;;2.03;;
61911;SDS011;49973;52.084;5.412;2023-03-14T02:50:56;7.23;;;2.47;;
61911;SDS011;49973;52.084;5.412;2023-03-14T02:53:28;4.90;;;1.70;;
61911;SDS011;49973;52.084;5.412;2023-03-14T02:56:03;5.03;;;2.07;;
61911;SDS011;49973;52.084;5.412;2023-03-14T02:58:35;11.23;;;2.47;;
61911;SDS011;49973;52.084;5.412;2023-03-14T03:01:27;5.47;;;2.33;;
61911;SDS011;49973;52.084;5.412;2023-03-14T03:03:56;12.47;;;2.30;;
61911;SDS011;49973;52.084;5.412;2023-03-14T03:06:24;9.53;;;2.30;;
61911;SDS011;49973;52.084;5.412;2023-03-14T03:08:53;7.23;;;2.70;;
61911;SDS011;49973;52.084;5.412;2023-03-14T03:11:21;9.10;;;1.97;;
61911;SDS011;49973;52.084;5.412;2023-03-14T03:13:51;7.47;;;2.17;;
61911;SDS011;49973;52.084;5.412;2023-03-14T03:16:20;5.20;;;1.97;;
61911;SDS011;49973;52.084;5.412;2023-03-14T03:18:49;5.47;;;1.83;;
61911;SDS011;49973;52.084;5.412;2023-03-14T03:21:17;11.80;;;2.20;;
61911;SDS011;49973;52.084;5.412;2023-03-14T03:23:50;12.70;;;1.97;;
61911;SDS011;49973;52.084;5.412;2023-03-14T03:26:18;5.00;;;2.20;;
61911;SDS011;49973;52.084;5.412;2023-03-14T03:28:47;4.67;;;1.73;;
61911;SDS011;49973;52.084;5.412;2023-03-14T03:31:21;5.13;;;1.40;;
61911;SDS011;49973;52.084;5.412;2023-03-14T03:33:49;8.57;;;2.03;;
61911;SDS011;49973;52.084;5.412;2023-03-14T03:36:20;11.00;;;2.23;;
61911;SDS011;49973;52.084;5.412;2023-03-14T03:38:49;8.73;;;2.23;;
61911;SDS011;49973;52.084;5.412;2023-03-14T03:41:18;9.50;;;2.10;;
61911;SDS011;49973;52.084;5.412;2023-03-14T03:43:47;11.50;;;1.90;;
61911;SDS011;49973;52.084;5.412;2023-03-14T03:46:18;9.67;;;2.30;;
61911;SDS011;49973;52.084;5.412;2023-03-14T03:48:46;9.50;;;1.87;;
61911;SDS011;49973;52.084;5.412;2023-03-14T03:51:15;11.67;;;2.70;;
61911;SDS011;49973;52.084;5.412;2023-03-14T03:53:44;5.93;;;1.83;;
61911;SDS011;49973;52.084;5.412;2023-03-14T03:56:17;7.77;;;2.47;;
61911;SDS011;49973;52.084;5.412;2023-03-14T03:58:46;6.43;;;1.60;;
61911;SDS011;49973;52.084;5.412;2023-03-14T04:01:14;7.50;;;1.97;;
61911;SDS011;49973;52.084;5.412;2023-03-14T04:03:48;8.17;;;2.47;;
61911;SDS011;49973;52.084;5.412;2023-03-14T04:06:18;4.47;;;1.43;;
61911;SDS011;49973;52.084;5.412;2023-03-14T04:08:49;8.30;;;1.73;;
61911;SDS011;49973;52.084;5.412;2023-03-14T04:11:37;9.23;;;1.87;;
61911;SDS011;49973;52.084;5.412;2023-03-14T04:14:21;3.50;;;1.30;;
61911;SDS011;49973;52.084;5.412;2023-03-14T04:17:09;4.50;;;1.60;;
61911;SDS011;49973;52.084;5.412;2023-03-14T04:19:39;11.53;;;1.83;;
61911;SDS011;49973;52.084;5.412;2023-03-14T04:22:09;9.40;;;1.93;;
61911;SDS011;49973;52.084;5.412;2023-03-14T04:24:46;7.43;;;1.77;;
61911;SDS011;49973;52.084;5.412;2023-03-14T04:27:14;10.93;;;2.03;;
61911;SDS011;49973;52.084;5.412;2023-03-14T04:29:44;10.27;;;1.90;;
61911;SDS011;49973;52.084;5.412;2023-03-14T04:32:16;7.17;;;1.83;;
61911;SDS011;49973;52.084;5.412;2023-03-14T04:34:46;6.43;;;1.80;;
61911;SDS011;49973;52.084;5.412;2023-03-14T04:37:14;8.97;;;1.87;;
61911;SDS011;49973;52.084;5.412;2023-03-14T04:39:44;10.80;;;2.13;;
61911;SDS011;49973;52.084;5.412;2023-03-14T04:42:17;3.87;;;1.60;;
61911;SDS011;49973;52.084;5.412;2023-03-14T04:44:46;5.87;;;1.63;;
61911;SDS011;49973;52.084;5.412;2023-03-14T04:47:17;7.57;;;1.90;;
61911;SDS011;49973;52.084;5.412;2023-03-14T04:49:48;5.37;;;1.40;;
61911;SDS011;49973;52.084;5.412;2023-03-14T04:52:17;9.57;;;1.67;;
61911;SDS011;49973;52.084;5.412;2023-03-14T04:54:46;7.37;;;2.47;;
61911;SDS011;49973;52.084;5.412;2023-03-14T04:57:16;7.33;;;2.20;;
61911;SDS011;49973;52.084;5.412;2023-03-14T04:59:45;6.63;;;1.70;;
61911;SDS011;49973;52.084;5.412;2023-03-14T05:02:26;4.63;;;1.77;;
61911;SDS011;49973;52.084;5.412;2023-03-14T05:05:17;6.13;;;1.73;;
61911;SDS011;49973;52.084;5.412;2023-03-14T05:08:05;5.37;;;1.87;;
61911;SDS011;49973;52.084;5.412;2023-03-14T05:10:56;6.10;;;2.00;;
61911;SDS011;49973;52.084;5.412;2023-03-14T05:13:40;7.63;;;1.90;;
61911;SDS011;49973;52.084;5.412;2023-03-14T05:16:14;7.57;;;2.00;;
61911;SDS011;49973;52.084;5.412;2023-03-14T05:19:01;5.90;;;1.70;;
61911;SDS011;49973;52.084;5.412;2023-03-14T05:21:50;7.30;;;1.70;;
61911;SDS011;49973;52.084;5.412;2023-03-14T05:24:47;6.73;;;2.10;;
61911;SDS011;49973;52.084;5.412;2023-03-14T05:27:35;6.97;;;2.53;;
61911;SDS011;49973;52.084;5.412;2023-03-14T05:30:26;4.80;;;2.37;;
61911;SDS011;49973;52.084;5.412;2023-03-14T05:33:15;11.87;;;2.47;;
61911;SDS011;49973;52.084;5.412;2023-03-14T05:36:04;9.03;;;2.87;;
61911;SDS011;49973;52.084;5.412;2023-03-14T05:38:58;5.20;;;2.73;;
61911;SDS011;49973;52.084;5.412;2023-03-14T05:41:38;3.33;;;2.20;;
61911;SDS011;49973;52.084;5.412;2023-03-14T05:44:15;11.73;;;2.57;;
61911;SDS011;49973;52.084;5.412;2023-03-14T05:47:01;7.83;;;2.67;;
61911;SDS011;49973;52.084;5.412;2023-03-14T05:49:38;10.37;;;2.57;;
61911;SDS011;49973;52.084;5.412;2023-03-14T05:52:24;8.07;;;2.93;;
61911;SDS011;49973;52.084;5.412;2023-03-14T05:55:07;6.97;;;2.63;;
61911;SDS011;49973;52.084;5.412;2023-03-14T05:57:47;5.83;;;3.10;;
61911;SDS011;49973;52.084;5.412;2023-03-14T06:00:34;7.70;;;3.07;;
61911;SDS011;49973;52.084;5.412;2023-03-14T06:03:16;6.33;;;3.60;;
61911;SDS011;49973;52.084;5.412;2023-03-14T06:05:49;6.03;;;3.07;;
61911;SDS011;49973;52.084;5.412;2023-03-14T06:08:19;5.50;;;3.60;;
61911;SDS011;49973;52.084;5.412;2023-03-14T06:10:49;11.20;;;3.93;;
61911;SDS011;49973;52.084;5.412;2023-03-14T06:13:19;11.03;;;3.50;;
61911;SDS011;49973;52.084;5.412;2023-03-14T06:15:48;9.70;;;4.00;;
61911;SDS011;49973;52.084;5.412;2023-03-14T06:18:17;8.80;;;4.37;;
61911;SDS011;49973;52.084;5.412;2023-03-14T06:20:45;20.30;;;5.03;;
61911;SDS011;49973;52.084;5.412;2023-03-14T06:23:22;12.47;;;4.40;;
61911;SDS011;49973;52.084;5.412;2023-03-14T06:25:53;8.20;;;4.13;;
61911;SDS011;49973;52.084;5.412;2023-03-14T06:28:23;12.33;;;4.33;;
61911;SDS011;49973;52.084;5.412;2023-03-14T06:30:56;10.37;;;3.80;;
61911;SDS011;49973;52.084;5.412;2023-03-14T06:33:28;8.03;;;4.10;;
61911;SDS011;49973;52.084;5.412;2023-03-14T06:35:59;11.83;;;4.90;;
61911;SDS011;49973;52.084;5.412;2023-03-14T06:38:28;10.00;;;5.13;;
61911;SDS011;49973;52.084;5.412;2023-03-14T06:41:03;18.90;;;5.40;;
61911;SDS011;49973;52.084;5.412;2023-03-14T06:43:41;8.87;;;3.17;;
61911;SDS011;49973;52.084;5.412;2023-03-14T06:46:09;5.43;;;2.73;;
61911;SDS011;49973;52.084;5.412;2023-03-14T06:48:40;4.70;;;2.50;;
61911;SDS011;49973;52.084;5.412;2023-03-14T06:51:09;7.73;;;1.67;;
61911;SDS011;49973;52.084;5.412;2023-03-14T06:53:37;1.03;;;0.77;;
61911;SDS011;49973;52.084;5.412;2023-03-14T06:56:08;4.10;;;1.10;;
61911;SDS011;49973;52.084;5.412;2023-03-14T06:58:37;0.50;;;0.40;;
61911;SDS011;49973;52.084;5.412;2023-03-14T07:01:12;1.17;;;0.87;;
61911;SDS011;49973;52.084;5.412;2023-03-14T07:03:49;1.10;;;0.60;;
61911;SDS011;49973;52.084;5.412;2023-03-14T07:06:17;2.53;;;0.63;;
61911;SDS011;49973;52.084;5.412;2023-03-14T07:08:47;2.37;;;0.60;;
61911;SDS011;49973;52.084;5.412;2023-03-14T07:11:18;1.97;;;0.90;;
61911;SDS011;49973;52.084;5.412;2023-03-14T07:13:46;5.67;;;1.17;;
61911;SDS011;49973;52.084;5.412;2023-03-14T07:16:15;1.00;;;0.80;;
61911;SDS011;49973;52.084;5.412;2023-03-14T07:18:44;1.73;;;1.03;;
61911;SDS011;49973;52.084;5.412;2023-03-14T07:21:12;5.73;;;1.13;;
61911;SDS011;49973;52.084;5.412;2023-03-14T07:23:41;4.07;;;1.20;;
61911;SDS011;49973;52.084;5.412;2023-03-14T07:26:11;4.97;;;1.57;;
61911;SDS011;49973;52.084;5.412;2023-03-14T07:28:46;3.97;;;1.50;;
61911;SDS011;49973;52.084;5.412;2023-03-14T07:31:18;2.87;;;1.30;;
61911;SDS011;49973;52.084;5.412;2023-03-14T07:33:47;5.77;;;1.57;;
61911;SDS011;49973;52.084;5.412;2023-03-14T07:36:17;2.63;;;1.43;;
61911;SDS011;49973;52.084;5.412;2023-03-14T07:38:46;2.53;;;1.43;;
61911;SDS011;49973;52.084;5.412;2023-03-14T07:41:33;2.33;;;1.30;;
61911;SDS011;49973;52.084;5.412;2023-03-14T07:44:22;1.00;;;0.90;;
61911;SDS011;49973;52.084;5.412;2023-03-14T07:46:51;3.47;;;1.40;;
61911;SDS011;49973;52.084;5.412;2023-03-14T07:49:19;0.57;;;0.57;;
61911;SDS011;49973;52.084;5.412;2023-03-14T07:51:48;2.00;;;0.93;;
61911;SDS011;49973;52.084;5.412;2023-03-14T07:54:17;3.70;;;1.07;;
61911;SDS011;49973;52.084;5.412;2023-03-14T07:56:47;1.77;;;1.23;;
61911;SDS011;49973;52.084;5.412;2023-03-14T07:59:15;2.67;;;0.80;;
61911;SDS011;49973;52.084;5.412;2023-03-14T08:01:45;1.57;;;0.77;;
61911;SDS011;49973;52.084;5.412;2023-03-14T08:04:14;4.70;;;1.07;;
61911;SDS011;49973;52.084;5.412;2023-03-14T08:06:42;1.13;;;0.70;;
61911;SDS011;49973;52.084;5.412;2023-03-14T08:09:11;2.00;;;0.60;;
61911;SDS011;49973;52.084;5.412;2023-03-14T08:11:39;4.47;;;0.87;;
61911;SDS011;49973;52.084;5.412;2023-03-14T08:14:07;3.43;;;1.07;;
61911;SDS011;49973;52.084;5.412;2023-03-14T08:16:37;3.43;;;1.03;;
61911;SDS011;49973;52.084;5.412;2023-03-14T08:19:07;10.50;;;1.10;;
61911;SDS011;49973;52.084;5.412;2023-03-14T08:21:36;9.93;;;1.50;;
61911;SDS011;49973;52.084;5.412;2023-03-14T08:24:04;1.60;;;0.77;;
61911;SDS011;49973;52.084;5.412;2023-03-14T08:26:33;3.77;;;1.03;;
61911;SDS011;49973;52.084;5.412;2023-03-14T08:29:02;4.17;;;0.77;;
61911;SDS011;49973;52.084;5.412;2023-03-14T08:31:31;1.30;;;0.60;;
61911;SDS011;49973;52.084;5.412;2023-03-14T08:34:00;4.87;;;0.77;;
61911;SDS011;49973;52.084;5.412;2023-03-14T08:36:30;4.90;;;0.93;;
61911;SDS011;49973;52.084;5.412;2023-03-14T08:38:58;7.27;;;0.80;;
61911;SDS011;49973;52.084;5.412;2023-03-14T08:41:27;2.97;;;0.53;;
61911;SDS011;49973;52.084;5.412;2023-03-14T08:43:56;0.50;;;0.47;;
61911;SDS011;49973;52.084;5.412;2023-03-14T08:46:24;3.73;;;0.90;;
61911;SDS011;49973;52.084;5.412;2023-03-14T08:48:53;7.67;;;0.50;;
61911;SDS011;49973;52.084;5.412;2023-03-14T08:51:21;1.30;;;0.50;;
61911;SDS011;49973;52.084;5.412;2023-03-14T08:53:51;6.23;;;0.83;;
61911;SDS011;49973;52.084;5.412;2023-03-14T08:56:19;2.60;;;0.80;;
61911;SDS011;49973;52.084;5.412;2023-03-14T08:58:51;4.43;;;0.87;;
61911;SDS011;49973;52.084;5.412;2023-03-14T09:01:20;1.57;;;1.03;;
61911;SDS011;49973;52.084;5.412;2023-03-14T09:03:50;3.73;;;0.93;;
61911;SDS011;49973;52.084;5.412;2023-03-14T09:06:19;2.97;;;0.83;;
61911;SDS011;49973;52.084;5.412;2023-03-14T09:08:47;6.97;;;1.27;;
61911;SDS011;49973;52.084;5.412;2023-03-14T09:11:17;3.70;;;0.90;;
61911;SDS011;49973;52.084;5.412;2023-03-14T09:13:46;2.97;;;1.03;;
61911;SDS011;49973;52.084;5.412;2023-03-14T09:16:15;5.10;;;0.83;;
61911;SDS011;49973;52.084;5.412;2023-03-14T09:18:44;3.17;;;1.20;;
61911;SDS011;49973;52.084;5.412;2023-03-14T09:21:12;7.73;;;1.27;;
61911;SDS011;49973;52.084;5.412;2023-03-14T09:23:41;4.70;;;1.07;;
61911;SDS011;49973;52.084;5.412;2023-03-14T09:26:12;6.53;;;1.53;;
61911;SDS011;49973;52.084;5.412;2023-03-14T09:28:42;6.07;;;1.10;;
61911;SDS011;49973;52.084;5.412;2023-03-14T09:31:11;4.43;;;1.53;;
61911;SDS011;49973;52.084;5.412;2023-03-14T09:33:39;5.63;;;2.03;;
61911;SDS011;49973;52.084;5.412;2023-03-14T09:36:08;6.03;;;1.03;;
61911;SDS011;49973;52.084;5.412;2023-03-14T09:38:37;6.83;;;1.20;;
61911;SDS011;49973;52.084;5.412;2023-03-14T09:41:12;10.03;;;1.93;;
61911;SDS011;49973;52.084;5.412;2023-03-14T09:43:45;2.70;;;1.43;;
61911;SDS011;49973;52.084;5.412;2023-03-14T09:46:17;6.67;;;2.07;;
61911;SDS011;49973;52.084;5.412;2023-03-14T09:48:46;15.70;;;1.83;;
61911;SDS011;49973;52.084;5.412;2023-03-14T09:51:16;5.63;;;1.67;;
61911;SDS011;49973;52.084;5.412;2023-03-14T09:53:48;7.87;;;1.87;;
61911;SDS011;49973;52.084;5.412;2023-03-14T09:56:18;11.87;;;1.60;;
61911;SDS011;49973;52.084;5.412;2023-03-14T09:58:51;11.27;;;2.27;;
61911;SDS011;49973;52.084;5.412;2023-03-14T10:01:23;13.53;;;2.10;;
61911;SDS011;49973;52.084;5.412;2023-03-14T10:03:58;16.30;;;2.50;;
61911;SDS011;49973;52.084;5.412;2023-03-14T10:06:30;15.77;;;1.83;;
61911;SDS011;49973;52.084;5.412;2023-03-14T10:08:59;5.63;;;1.67;;
61911;SDS011;49973;52.084;5.412;2023-03-14T10:11:29;9.20;;;2.07;;
61911;SDS011;49973;52.084;5.412;2023-03-14T10:14:06;7.50;;;2.13;;
61911;SDS011;49973;52.084;5.412;2023-03-14T10:16:40;11.13;;;1.97;;
61911;SDS011;49973;52.084;5.412;2023-03-14T10:19:11;13.07;;;2.60;;
61911;SDS011;49973;52.084;5.412;2023-03-14T10:21:41;15.43;;;2.43;;
61911;SDS011;49973;52.084;5.412;2023-03-14T10:24:18;11.03;;;2.13;;
61911;SDS011;49973;52.084;5.412;2023-03-14T10:26:48;9.30;;;1.97;;
61911;SDS011;49973;52.084;5.412;2023-03-14T10:29:21;12.20;;;1.37;;
61911;SDS011;49973;52.084;5.412;2023-03-14T10:31:51;6.53;;;1.77;;
61911;SDS011;49973;52.084;5.412;2023-03-14T10:34:22;15.27;;;1.90;;
61911;SDS011;49973;52.084;5.412;2023-03-14T10:36:53;10.73;;;2.27;;
61911;SDS011;49973;52.084;5.412;2023-03-14T10:39:27;10.27;;;1.50;;
61911;SDS011;49973;52.084;5.412;2023-03-14T10:42:04;10.17;;;2.57;;
61911;SDS011;49973;52.084;5.412;2023-03-14T10:44:41;7.27;;;1.87;;
61911;SDS011;49973;52.084;5.412;2023-03-14T10:47:15;15.53;;;1.97;;
61911;SDS011;49973;52.084;5.412;2023-03-14T10:49:47;5.13;;;1.50;;
61911;SDS011;49973;52.084;5.412;2023-03-14T10:52:19;17.20;;;2.73;;
61911;SDS011;49973;52.084;5.412;2023-03-14T10:55:02;8.60;;;1.80;;
61911;SDS011;49973;52.084;5.412;2023-03-14T10:57:38;12.20;;;3.33;;
61911;SDS011;49973;52.084;5.412;2023-03-14T11:00:12;13.80;;;2.20;;
61911;SDS011;49973;52.084;5.412;2023-03-14T11:05:37;17.87;;;2.23;;
61911;SDS011;49973;52.084;5.412;2023-03-14T11:08:11;12.87;;;2.17;;
61911;SDS011;49973;52.084;5.412;2023-03-14T11:10:43;20.67;;;3.87;;
61911;SDS011;49973;52.084;5.412;2023-03-14T11:13:17;20.57;;;3.57;;
61911;SDS011;49973;52.084;5.412;2023-03-14T11:15:53;22.77;;;3.33;;
61911;SDS011;49973;52.084;5.412;2023-03-14T11:21:26;12.10;;;1.67;;
61911;SDS011;49973;52.084;5.412;2023-03-14T11:24:03;15.33;;;1.70;;
61911;SDS011;49973;52.084;5.412;2023-03-14T11:26:42;8.93;;;1.43;;
61911;SDS011;49973;52.084;5.412;2023-03-14T11:29:20;13.30;;;2.30;;
61911;SDS011;49973;52.084;5.412;2023-03-14T11:31:57;10.93;;;1.43;;
61911;SDS011;49973;52.084;5.412;2023-03-14T11:34:32;10.67;;;2.37;;
61911;SDS011;49973;52.084;5.412;2023-03-14T11:37:10;13.13;;;2.23;;
61911;SDS011;49973;52.084;5.412;2023-03-14T11:39:46;14.00;;;1.80;;
61911;SDS011;49973;52.084;5.412;2023-03-14T11:42:21;11.73;;;2.37;;
61911;SDS011;49973;52.084;5.412;2023-03-14T11:44:52;7.23;;;1.67;;
61911;SDS011;49973;52.084;5.412;2023-03-14T11:47:25;5.47;;;2.20;;
61911;SDS011;49973;52.084;5.412;2023-03-14T11:49:58;11.27;;;2.00;;
61911;SDS011;49973;52.084;5.412;2023-03-14T11:52:30;11.13;;;2.30;;
61911;SDS011;49973;52.084;5.412;2023-03-14T11:55:03;24.37;;;2.50;;
61911;SDS011;49973;52.084;5.412;2023-03-14T11:57:38;12.80;;;2.60;;
61911;SDS011;49973;52.084;5.412;2023-03-14T12:00:13;24.30;;;2.17;;
61911;SDS011;49973;52.084;5.412;2023-03-14T12:02:47;7.40;;;1.80;;
61911;SDS011;49973;52.084;5.412;2023-03-14T12:05:27;9.30;;;1.27;;
61911;SDS011;49973;52.084;5.412;2023-03-14T12:08:19;12.90;;;1.63;;
61911;SDS011;49973;52.084;5.412;2023-03-14T12:11:01;8.00;;;1.50;;
61911;SDS011;49973;52.084;5.412;2023-03-14T12:13:35;18.30;;;2.03;;
61911;SDS011;49973;52.084;5.412;2023-03-14T12:16:06;7.57;;;1.50;;
61911;SDS011;49973;52.084;5.412;2023-03-14T12:18:48;13.50;;;1.40;;
61911;SDS011;49973;52.084;5.412;2023-03-14T12:21:18;8.40;;;1.23;;
61911;SDS011;49973;52.084;5.412;2023-03-14T12:23:48;4.20;;;1.40;;
61911;SDS011;49973;52.084;5.412;2023-03-14T12:26:20;8.27;;;1.70;;
61911;SDS011;49973;52.084;5.412;2023-03-14T12:28:50;5.93;;;1.40;;
61911;SDS011;49973;52.084;5.412;2023-03-14T12:31:36;5.50;;;1.10;;
61911;SDS011;49973;52.084;5.412;2023-03-14T12:37:06;9.97;;;1.00;;
61911;SDS011;49973;52.084;5.412;2023-03-14T12:39:46;8.43;;;1.27;;
61911;SDS011;49973;52.084;5.412;2023-03-14T12:42:36;4.07;;;1.27;;
61911;SDS011;49973;52.084;5.412;2023-03-14T12:45:23;3.23;;;0.87;;
61911;SDS011;49973;52.084;5.412;2023-03-14T12:48:00;3.10;;;1.43;;
61911;SDS011;49973;52.084;5.412;2023-03-14T12:50:39;6.90;;;1.00;;
61911;SDS011;49973;52.084;5.412;2023-03-14T12:59:06;3.43;;;1.37;;
61911;SDS011;49973;52.084;5.412;2023-03-14T13:01:53;4.33;;;1.23;;
61911;SDS011;49973;52.084;5.412;2023-03-14T13:04:27;4.47;;;1.20;;
61911;SDS011;49973;52.084;5.412;2023-03-14T13:07:11;4.03;;;1.13;;
61911;SDS011;49973;52.084;5.412;2023-03-14T13:12:37;5.93;;;1.20;;
61911;SDS011;49973;52.084;5.412;2023-03-14T13:15:15;4.50;;;1.23;;
61911;SDS011;49973;52.084;5.412;2023-03-14T13:17:46;2.03;;;0.73;;
61911;SDS011;49973;52.084;5.412;2023-03-14T13:20:18;4.90;;;1.10;;
61911;SDS011;49973;52.084;5.412;2023-03-14T13:22:52;8.57;;;1.30;;
61911;SDS011;49973;52.084;5.412;2023-03-14T13:25:20;3.90;;;0.97;;
61911;SDS011;49973;52.084;5.412;2023-03-14T13:27:52;5.03;;;0.80;;
61911;SDS011;49973;52.084;5.412;2023-03-14T13:30:23;3.90;;;1.00;;
61911;SDS011;49973;52.084;5.412;2023-03-14T13:32:54;7.40;;;1.10;;
61911;SDS011;49973;52.084;5.412;2023-03-14T13:35:24;2.67;;;0.80;;
61911;SDS011;49973;52.084;5.412;2023-03-14T13:37:57;1.53;;;0.97;;
61911;SDS011;49973;52.084;5.412;2023-03-14T13:40:38;6.17;;;1.30;;
61911;SDS011;49973;52.084;5.412;2023-03-14T13:43:14;9.80;;;1.63;;
61911;SDS011;49973;52.084;5.412;2023-03-14T13:45:49;9.30;;;0.90;;
61911;SDS011;49973;52.084;5.412;2023-03-14T13:48:25;4.47;;;0.77;;
61911;SDS011;49973;52.084;5.412;2023-03-14T13:50:56;6.23;;;1.07;;
61911;SDS011;49973;52.084;5.412;2023-03-14T13:53:30;1.57;;;0.73;;
61911;SDS011;49973;52.084;5.412;2023-03-14T13:56:01;3.00;;;1.03;;
61911;SDS011;49973;52.084;5.412;2023-03-14T13:58:30;9.10;;;1.00;;
61911;SDS011;49973;52.084;5.412;2023-03-14T14:01:02;8.10;;;1.67;;
61911;SDS011;49973;52.084;5.412;2023-03-14T14:03:34;4.40;;;1.27;;
61911;SDS011;49973;52.084;5.412;2023-03-14T14:06:07;3.30;;;1.10;;
61911;SDS011;49973;52.084;5.412;2023-03-14T14:08:45;5.30;;;0.90;;
61911;SDS011;49973;52.084;5.412;2023-03-14T14:11:17;10.93;;;1.63;;
61911;SDS011;49973;52.084;5.412;2023-03-14T14:14:11;7.57;;;1.37;;
61911;SDS011;49973;52.084;5.412;2023-03-14T14:16:46;10.27;;;1.57;;
61911;SDS011;49973;52.084;5.412;2023-03-14T14:19:19;10.03;;;1.03;;
61911;SDS011;49973;52.084;5.412;2023-03-14T14:21:51;3.97;;;1.33;;
61911;SDS011;49973;52.084;5.412;2023-03-14T14:24:22;8.20;;;1.43;;
61911;SDS011;49973;52.084;5.412;2023-03-14T14:26:58;4.20;;;1.07;;
61911;SDS011;49973;52.084;5.412;2023-03-14T14:29:30;9.53;;;1.57;;
61911;SDS011;49973;52.084;5.412;2023-03-14T14:32:00;5.70;;;1.47;;
61911;SDS011;49973;52.084;5.412;2023-03-14T14:34:30;3.20;;;0.80;;
61911;SDS011;49973;52.084;5.412;2023-03-14T14:37:17;9.30;;;1.50;;
61911;SDS011;49973;52.084;5.412;2023-03-14T14:39:54;8.60;;;1.20;;
61911;SDS011;49973;52.084;5.412;2023-03-14T14:42:25;10.53;;;0.80;;
61911;SDS011;49973;52.084;5.412;2023-03-14T14:44:56;3.67;;;1.07;;
61911;SDS011;49973;52.084;5.412;2023-03-14T14:47:27;1.67;;;1.00;;
61911;SDS011;49973;52.084;5.412;2023-03-14T14:49:58;7.60;;;1.50;;
61911;SDS011;49973;52.084;5.412;2023-03-14T14:52:33;4.20;;;1.17;;
61911;SDS011;49973;52.084;5.412;2023-03-14T14:55:16;8.30;;;1.27;;
61911;SDS011;49973;52.084;5.412;2023-03-14T14:57:49;7.10;;;1.37;;
61911;SDS011;49973;52.084;5.412;2023-03-14T15:00:20;4.13;;;1.43;;
61911;SDS011;49973;52.084;5.412;2023-03-14T15:02:51;2.27;;;0.80;;
61911;SDS011;49973;52.084;5.412;2023-03-14T15:05:22;13.47;;;0.83;;
61911;SDS011;49973;52.084;5.412;2023-03-14T15:07:52;4.07;;;0.90;;
61911;SDS011;49973;52.084;5.412;2023-03-14T15:10:24;5.97;;;1.23;;
61911;SDS011;49973;52.084;5.412;2023-03-14T15:12:53;9.03;;;1.80;;
61911;SDS011;49973;52.084;5.412;2023-03-14T15:15:21;3.77;;;0.90;;
61911;SDS011;49973;52.084;5.412;2023-03-14T15:17:50;6.67;;;1.73;;
61911;SDS011;49973;52.084;5.412;2023-03-14T15:20:19;5.80;;;1.47;;
61911;SDS011;49973;52.084;5.412;2023-03-14T15:22:50;8.50;;;1.43;;
61911;SDS011;49973;52.084;5.412;2023-03-14T15:25:19;4.70;;;1.37;;
61911;SDS011;49973;52.084;5.412;2023-03-14T15:28:12;3.27;;;1.00;;
61911;SDS011;49973;52.084;5.412;2023-03-14T15:30:46;4.77;;;1.00;;
61911;SDS011;49973;52.084;5.412;2023-03-14T15:33:16;3.27;;;1.23;;
61911;SDS011;49973;52.084;5.412;2023-03-14T15:35:46;7.37;;;1.10;;